createdAt,value
2022-09-29T00:00:45.596Z,9.60
2022-09-29T00:01:52.577Z,9.60
2022-09-29T00:03:06.917Z,10.70
2022-09-29T00:04:14.430Z,10.40
2022-09-29T00:05:19.669Z,9.60
2022-09-29T00:06:24.224Z,9.60
2022-09-29T00:07:30.237Z,9.50
2022-09-29T00:08:37.886Z,9.60
2022-09-29T00:09:42.602Z,9.50
2022-09-29T00:10:47.293Z,9.50
2022-09-29T00:11:55.743Z,9.60
2022-09-29T00:13:01.334Z,9.60
2022-09-29T00:14:05.343Z,9.60
2022-09-29T00:15:10.137Z,9.50
2022-09-29T00:16:17.239Z,9.60
2022-09-29T00:17:21.934Z,9.60
2022-09-29T00:18:26.937Z,9.60
2022-09-29T00:19:32.323Z,9.60
2022-09-29T00:20:43.936Z,9.60
2022-09-29T00:21:47.533Z,9.70
2022-09-29T00:22:59.026Z,9.70
2022-09-29T00:24:05.290Z,9.70
2022-09-29T00:25:08.527Z,9.80
2022-09-29T00:26:14.663Z,9.70
2022-09-29T00:27:21.858Z,9.80
2022-09-29T00:28:25.460Z,9.80
2022-09-29T00:29:30.875Z,9.80
2022-09-29T00:30:38.373Z,9.80
2022-09-29T00:31:42.300Z,9.80
2022-09-29T00:32:45.362Z,9.80
2022-09-29T00:33:54.269Z,9.80
2022-09-29T00:35:04.994Z,9.80
2022-09-29T00:36:12.802Z,9.80
2022-09-29T00:37:17.582Z,10.00
2022-09-29T00:38:23.754Z,9.90
2022-09-29T00:39:29.182Z,9.90
2022-09-29T00:40:42.718Z,9.90
2022-09-29T00:41:48.143Z,9.80
2022-09-29T00:42:52.251Z,9.90
2022-09-29T00:44:00.241Z,10.20
2022-09-29T00:45:14.878Z,11.10
2022-09-29T00:46:27.388Z,9.80
2022-09-29T00:47:36.690Z,9.90
2022-09-29T00:48:45.184Z,9.90
2022-09-29T00:49:54.709Z,9.80
2022-09-29T00:51:00.084Z,10.60
2022-09-29T00:52:08.562Z,9.80
2022-09-29T00:53:21.888Z,11.00
2022-09-29T00:54:31.986Z,10.00
2022-09-29T00:55:44.353Z,9.90
2022-09-29T00:56:51.630Z,9.90
2022-09-29T00:57:58.184Z,9.90
2022-09-29T00:59:12.212Z,9.90
2022-09-29T01:00:23.056Z,9.90
2022-09-29T01:01:34.912Z,9.90
2022-09-29T01:02:47.291Z,9.90
2022-09-29T01:04:00.886Z,9.90
2022-09-29T01:05:15.417Z,9.80
2022-09-29T01:06:25.707Z,9.80
2022-09-29T01:07:31.144Z,10.30
2022-09-29T01:08:43.088Z,9.80
2022-09-29T01:09:50.971Z,9.80
2022-09-29T01:11:01.651Z,9.80
2022-09-29T01:12:13.163Z,9.90
2022-09-29T01:13:15.770Z,9.80
2022-09-29T01:14:22.607Z,9.80
2022-09-29T01:15:38.157Z,9.80
2022-09-29T01:16:43.973Z,9.80
2022-09-29T01:17:54.938Z,9.80
2022-09-29T01:19:04.487Z,9.80
2022-09-29T01:20:28.760Z,9.80
2022-09-29T01:21:42.484Z,9.80
2022-09-29T01:25:22.317Z,9.80
2022-09-29T01:27:10.517Z,9.80
2022-09-29T01:28:51.196Z,9.80
2022-09-29T01:30:10.382Z,9.80
2022-09-29T01:31:36.815Z,9.80
2022-09-29T01:33:09.412Z,9.80
2022-09-29T01:34:26.015Z,9.70
2022-09-29T01:36:00.577Z,9.80
2022-09-29T01:37:22.646Z,9.80
2022-09-29T01:39:03.114Z,10.20
2022-09-29T01:41:49.020Z,9.80
2022-09-29T01:43:08.996Z,9.70
2022-09-29T01:44:32.722Z,9.70
2022-09-29T01:47:12.212Z,9.70
2022-09-29T01:48:25.493Z,9.70
2022-09-29T01:49:37.572Z,9.80
2022-09-29T01:50:47.300Z,9.70
2022-09-29T01:52:19.764Z,9.70
2022-09-29T01:53:31.450Z,9.70
2022-09-29T01:54:49.232Z,9.70
2022-09-29T01:58:01.063Z,9.70
2022-09-29T01:59:15.105Z,9.70
2022-09-29T02:00:25.796Z,9.70
2022-09-29T02:01:38.196Z,9.70
2022-09-29T02:02:49.646Z,9.70
2022-09-29T02:04:24.252Z,9.70
2022-09-29T02:05:34.318Z,9.70
2022-09-29T02:06:48.124Z,10.50
2022-09-29T02:08:04.022Z,9.70
2022-09-29T02:09:18.732Z,9.60
2022-09-29T02:10:29.120Z,9.70
2022-09-29T02:11:42.368Z,9.50
2022-09-29T02:12:51.307Z,9.50
2022-09-29T02:14:07.086Z,9.60
2022-09-29T02:15:19.706Z,9.50
2022-09-29T02:16:30.045Z,9.50
2022-09-29T02:17:40.051Z,9.50
2022-09-29T02:18:50.351Z,9.50
2022-09-29T02:19:58.483Z,9.50
2022-09-29T02:21:07.281Z,9.20
2022-09-29T02:22:12.383Z,9.60
2022-09-29T02:23:18.582Z,9.60
2022-09-29T02:24:26.623Z,9.50
2022-09-29T02:25:31.506Z,9.60
2022-09-29T02:26:36.443Z,9.90
2022-09-29T02:27:43.802Z,9.60
2022-09-29T02:28:48.055Z,9.60
2022-09-29T02:30:00.762Z,9.60
2022-09-29T02:33:06.847Z,9.50
2022-09-29T02:34:18.140Z,9.50
2022-09-29T02:35:26.228Z,9.50
2022-09-29T02:36:57.648Z,9.50
2022-09-29T02:38:12.084Z,9.50
2022-09-29T02:39:27.857Z,9.60
2022-09-29T02:40:51.639Z,10.00
2022-09-29T02:42:08.364Z,9.50
2022-09-29T02:43:32.345Z,9.40
2022-09-29T02:45:11.556Z,9.40
2022-09-29T02:46:35.380Z,9.40
2022-09-29T02:47:44.564Z,9.30
2022-09-29T02:49:23.188Z,9.20
2022-09-29T02:50:49.752Z,9.20
2022-09-29T02:51:59.870Z,9.20
2022-09-29T02:53:42.747Z,9.10
2022-09-29T02:54:57.678Z,9.10
2022-09-29T02:56:14.196Z,9.10
2022-09-29T02:57:30.772Z,9.10
2022-09-29T02:58:34.620Z,9.10
2022-09-29T02:59:52.316Z,9.00
2022-09-29T03:01:01.882Z,9.00
2022-09-29T03:02:12.596Z,9.00
2022-09-29T03:03:17.778Z,9.10
2022-09-29T03:04:27.658Z,9.00
2022-09-29T03:05:37.304Z,9.00
2022-09-29T03:06:45.510Z,9.00
2022-09-29T03:07:52.209Z,9.10
2022-09-29T03:09:00.289Z,8.20
2022-09-29T03:10:04.997Z,9.10
2022-09-29T03:11:09.809Z,9.20
2022-09-29T03:12:18.972Z,9.20
2022-09-29T03:13:43.342Z,9.10
2022-09-29T03:14:55.204Z,9.20
2022-09-29T03:16:02.739Z,9.00
2022-09-29T03:17:09.282Z,9.30
2022-09-29T03:18:16.885Z,9.00
2022-09-29T03:19:29.595Z,9.10
2022-09-29T03:20:47.324Z,9.20
2022-09-29T03:21:56.434Z,9.20
2022-09-29T03:23:19.734Z,9.30
2022-09-29T03:24:24.991Z,9.30
2022-09-29T03:25:38.000Z,9.40
2022-09-29T03:26:42.647Z,9.40
2022-09-29T03:27:54.648Z,9.40
2022-09-29T03:29:02.533Z,9.40
2022-09-29T03:30:11.666Z,9.40
2022-09-29T03:31:15.199Z,9.50
2022-09-29T03:32:24.412Z,9.50
2022-09-29T03:33:31.427Z,9.40
2022-09-29T03:34:40.654Z,8.30
2022-09-29T03:35:55.419Z,9.40
2022-09-29T03:37:12.738Z,9.30
2022-09-29T03:38:20.958Z,9.30
2022-09-29T03:39:30.143Z,9.30
2022-09-29T03:40:51.690Z,9.30
2022-09-29T03:41:56.079Z,9.50
2022-09-29T03:43:01.752Z,9.20
2022-09-29T03:44:06.620Z,9.20
2022-09-29T03:45:17.501Z,9.20
2022-09-29T03:46:26.682Z,9.20
2022-09-29T03:47:42.085Z,9.10
2022-09-29T03:48:47.025Z,9.10
2022-09-29T03:50:01.780Z,9.10
2022-09-29T03:51:13.926Z,9.20
2022-09-29T03:52:21.621Z,9.20
2022-09-29T03:53:28.550Z,9.20
2022-09-29T03:55:53.949Z,9.00
2022-09-29T03:57:02.999Z,9.00
2022-09-29T03:58:06.938Z,9.00
2022-09-29T03:59:15.374Z,9.00
2022-09-29T04:00:21.697Z,9.00
2022-09-29T04:01:30.543Z,9.00
2022-09-29T04:02:51.167Z,9.00
2022-09-29T04:03:56.594Z,9.00
2022-09-29T04:05:08.895Z,9.00
2022-09-29T04:06:13.804Z,9.00
2022-09-29T04:07:20.470Z,9.00
2022-09-29T04:08:29.687Z,9.00
2022-09-29T04:09:36.681Z,9.00
2022-09-29T04:10:47.465Z,9.00
2022-09-29T04:11:56.500Z,9.00
2022-09-29T04:13:03.600Z,9.00
2022-09-29T04:14:13.812Z,9.00
2022-09-29T04:15:20.468Z,9.10
2022-09-29T04:16:47.543Z,9.10
2022-09-29T04:17:54.438Z,9.10
2022-09-29T04:19:03.589Z,9.20
2022-09-29T04:20:11.660Z,9.10
2022-09-29T04:21:15.826Z,9.10
2022-09-29T04:22:24.735Z,9.00
2022-09-29T04:23:35.374Z,9.10
2022-09-29T04:24:43.189Z,9.10
2022-09-29T04:25:50.766Z,9.10
2022-09-29T04:26:57.514Z,9.10
2022-09-29T04:28:04.263Z,9.10
2022-09-29T04:29:11.226Z,9.10
2022-09-29T04:30:17.833Z,9.10
2022-09-29T04:31:25.391Z,9.10
2022-09-29T04:32:39.409Z,9.20
2022-09-29T04:33:52.879Z,9.10
2022-09-29T04:35:08.054Z,9.10
2022-09-29T04:36:22.935Z,9.00
2022-09-29T04:37:33.245Z,9.00
2022-09-29T04:38:42.677Z,9.10
2022-09-29T04:39:58.603Z,9.10
2022-09-29T04:41:12.244Z,9.00
2022-09-29T04:42:21.570Z,8.90
2022-09-29T04:43:27.668Z,9.00
2022-09-29T04:44:32.473Z,9.00
2022-09-29T04:45:41.196Z,9.00
2022-09-29T04:46:50.208Z,9.20
2022-09-29T04:47:58.062Z,9.00
2022-09-29T04:49:03.980Z,9.00
2022-09-29T04:50:27.118Z,8.90
2022-09-29T04:51:38.249Z,9.00
2022-09-29T04:52:46.798Z,9.50
2022-09-29T04:53:51.123Z,9.00
2022-09-29T04:54:58.866Z,9.00
2022-09-29T04:56:13.098Z,9.00
2022-09-29T04:58:42.878Z,9.00
2022-09-29T04:59:49.246Z,8.90
2022-09-29T05:01:08.458Z,10.10
2022-09-29T05:02:11.996Z,9.00
2022-09-29T05:03:17.052Z,9.00
2022-09-29T05:04:24.051Z,9.00
2022-09-29T05:05:32.379Z,9.10
2022-09-29T05:06:43.906Z,9.10
2022-09-29T05:07:51.708Z,9.00
2022-09-29T05:08:55.553Z,9.00
2022-09-29T05:10:04.709Z,9.10
2022-09-29T05:11:11.183Z,9.10
2022-09-29T05:12:16.432Z,9.20
2022-09-29T05:13:25.482Z,9.10
2022-09-29T05:14:56.246Z,9.10
2022-09-29T05:16:21.624Z,9.10
2022-09-29T05:17:30.776Z,9.10
2022-09-29T05:18:36.650Z,9.20
2022-09-29T05:19:46.552Z,9.20
2022-09-29T05:21:10.613Z,9.20
2022-09-29T05:22:32.512Z,9.20
2022-09-29T05:23:38.507Z,9.20
2022-09-29T05:24:49.266Z,9.70
2022-09-29T05:26:02.461Z,9.20
2022-09-29T05:27:09.053Z,9.20
2022-09-29T05:28:18.155Z,9.30
2022-09-29T05:29:24.887Z,9.30
2022-09-29T05:30:31.848Z,9.30
2022-09-29T05:31:37.659Z,8.80
2022-09-29T05:32:49.420Z,9.40
2022-09-29T05:34:21.604Z,9.30
2022-09-29T05:35:33.864Z,9.30
2022-09-29T05:36:39.492Z,9.40
2022-09-29T05:37:51.454Z,9.40
2022-09-29T05:39:07.676Z,9.50
2022-09-29T05:40:15.905Z,9.40
2022-09-29T05:41:26.796Z,9.50
2022-09-29T05:42:38.136Z,9.50
2022-09-29T05:43:44.070Z,9.50
2022-09-29T05:44:55.204Z,9.50
2022-09-29T05:46:03.411Z,9.60
2022-09-29T05:47:15.622Z,9.70
2022-09-29T05:48:18.464Z,9.60
2022-09-29T05:49:25.184Z,9.50
2022-09-29T05:50:34.191Z,9.90
2022-09-29T05:51:40.459Z,9.60
2022-09-29T05:52:50.424Z,9.70
2022-09-29T05:54:00.775Z,9.60
2022-09-29T05:55:06.197Z,9.60
2022-09-29T05:56:14.772Z,9.60
2022-09-29T05:57:35.617Z,9.60
2022-09-29T05:58:43.236Z,9.50
2022-09-29T05:59:52.296Z,9.60
2022-09-29T06:01:01.319Z,9.50
2022-09-29T06:02:11.359Z,9.60
2022-09-29T06:03:17.640Z,9.70
2022-09-29T06:04:24.326Z,9.70
2022-09-29T06:05:36.300Z,9.60
2022-09-29T06:06:42.007Z,9.60
2022-09-29T06:07:48.241Z,9.70
2022-09-29T06:09:02.487Z,9.80
2022-09-29T06:10:21.306Z,9.70
2022-09-29T06:11:28.206Z,9.70
2022-09-29T06:12:43.092Z,9.80
2022-09-29T06:13:52.354Z,9.80
2022-09-29T06:14:56.116Z,9.80
2022-09-29T06:16:02.589Z,9.70
2022-09-29T06:17:10.452Z,9.70
2022-09-29T06:18:26.736Z,9.70
2022-09-29T06:19:34.125Z,9.70
2022-09-29T06:20:40.797Z,9.80
2022-09-29T06:21:44.752Z,9.70
2022-09-29T06:22:52.245Z,9.60
2022-09-29T06:23:57.613Z,9.60
2022-09-29T06:25:10.772Z,9.60
2022-09-29T06:26:25.953Z,9.50
2022-09-29T06:27:40.069Z,9.40
2022-09-29T06:28:52.728Z,9.80
2022-09-29T06:29:59.851Z,9.50
2022-09-29T06:31:06.646Z,9.50
2022-09-29T06:32:20.890Z,9.60
2022-09-29T06:33:32.111Z,9.60
2022-09-29T06:34:58.642Z,9.60
2022-09-29T06:36:26.500Z,9.60
2022-09-29T06:37:40.650Z,9.70
2022-09-29T06:38:52.281Z,9.70
2022-09-29T06:40:00.919Z,9.80
2022-09-29T06:41:08.631Z,9.80
2022-09-29T06:42:21.207Z,9.80
2022-09-29T06:43:24.954Z,9.70
2022-09-29T06:44:35.930Z,9.80
2022-09-29T06:45:41.035Z,9.80
2022-09-29T06:46:46.734Z,9.80
2022-09-29T06:47:51.538Z,9.90
2022-09-29T06:48:59.547Z,10.00
2022-09-29T06:50:10.052Z,10.00
2022-09-29T06:51:37.076Z,10.00
2022-09-29T06:54:12.185Z,10.10
2022-09-29T06:55:23.926Z,10.00
2022-09-29T06:56:30.697Z,10.10
2022-09-29T06:57:46.312Z,10.20
2022-09-29T06:58:57.499Z,10.10
2022-09-29T07:00:09.713Z,10.10
2022-09-29T07:01:16.074Z,10.20
2022-09-29T07:02:19.822Z,10.10
2022-09-29T07:03:26.140Z,10.10
2022-09-29T07:04:40.987Z,10.10
2022-09-29T07:05:52.798Z,10.20
2022-09-29T07:07:06.602Z,10.20
2022-09-29T07:08:12.949Z,10.20
2022-09-29T07:09:18.258Z,10.20
2022-09-29T07:10:23.112Z,10.30
2022-09-29T07:11:27.091Z,10.30
2022-09-29T07:12:36.340Z,10.30
2022-09-29T07:13:42.303Z,10.40
2022-09-29T07:14:49.945Z,10.40
2022-09-29T07:15:56.404Z,10.40
2022-09-29T07:17:01.427Z,10.30
2022-09-29T07:18:07.405Z,10.40
2022-09-29T07:19:15.497Z,10.40
2022-09-29T07:20:25.534Z,10.40
2022-09-29T07:21:32.463Z,10.50
2022-09-29T07:22:43.057Z,10.30
2022-09-29T07:23:46.902Z,10.20
2022-09-29T07:24:54.367Z,10.20
2022-09-29T07:25:57.851Z,10.10
2022-09-29T07:27:05.077Z,10.10
2022-09-29T07:28:09.742Z,10.20
2022-09-29T07:29:15.871Z,10.20
2022-09-29T07:30:26.213Z,10.20
2022-09-29T07:32:03.045Z,10.10
2022-09-29T07:33:08.791Z,10.10
2022-09-29T07:34:21.225Z,10.10
2022-09-29T07:35:25.928Z,10.10
2022-09-29T07:36:33.765Z,10.20
2022-09-29T07:37:37.780Z,10.20
2022-09-29T07:38:43.228Z,10.20
2022-09-29T07:39:50.141Z,10.20
2022-09-29T07:41:04.971Z,10.20
2022-09-29T07:42:13.051Z,10.30
2022-09-29T07:43:18.036Z,10.20
2022-09-29T07:44:24.250Z,10.20
2022-09-29T07:45:33.981Z,10.20
2022-09-29T07:46:39.381Z,10.30
2022-09-29T07:47:43.866Z,10.30
2022-09-29T07:48:50.496Z,10.40
2022-09-29T07:49:55.702Z,10.40
2022-09-29T07:51:03.943Z,10.40
2022-09-29T07:52:14.857Z,10.50
2022-09-29T07:53:19.506Z,10.40
2022-09-29T07:54:29.653Z,10.30
2022-09-29T07:55:35.093Z,10.30
2022-09-29T07:56:48.983Z,10.30
2022-09-29T07:58:02.086Z,10.40
2022-09-29T07:59:07.021Z,10.40
2022-09-29T08:00:12.002Z,10.50
2022-09-29T08:01:28.293Z,10.60
2022-09-29T08:02:37.948Z,10.60
2022-09-29T08:03:49.593Z,10.60
2022-09-29T08:05:03.228Z,10.70
2022-09-29T08:06:11.795Z,10.70
2022-09-29T08:07:18.549Z,10.80
2022-09-29T08:08:22.042Z,10.90
2022-09-29T08:09:38.096Z,10.90
2022-09-29T08:10:52.908Z,10.90
2022-09-29T08:12:08.058Z,11.00
2022-09-29T08:13:15.718Z,11.10
2022-09-29T08:14:21.912Z,11.10
2022-09-29T08:15:26.396Z,11.20
2022-09-29T08:16:34.588Z,11.30
2022-09-29T08:17:41.685Z,11.40
2022-09-29T08:18:49.023Z,11.70
2022-09-29T08:19:54.836Z,11.80
2022-09-29T08:21:03.048Z,11.80
2022-09-29T08:22:09.911Z,11.90
2022-09-29T08:23:18.290Z,12.00
2022-09-29T08:24:31.170Z,12.00
2022-09-29T08:25:35.697Z,12.00
2022-09-29T08:26:44.331Z,12.00
2022-09-29T08:27:55.932Z,12.00
2022-09-29T08:29:07.783Z,12.00
2022-09-29T08:30:25.980Z,12.10
2022-09-29T08:31:49.604Z,12.20
2022-09-29T08:32:58.552Z,12.10
2022-09-29T08:34:04.794Z,12.20
2022-09-29T08:35:08.913Z,12.40
2022-09-29T08:36:16.668Z,12.40
2022-09-29T08:37:25.976Z,12.50
2022-09-29T08:38:35.032Z,12.60
2022-09-29T08:39:41.823Z,12.70
2022-09-29T08:40:55.691Z,12.70
2022-09-29T08:42:43.864Z,12.80
2022-09-29T08:44:02.583Z,12.80
2022-09-29T08:45:16.862Z,12.70
2022-09-29T08:46:35.840Z,12.80
2022-09-29T08:47:56.706Z,12.80
2022-09-29T08:49:24.304Z,12.90
2022-09-29T08:52:49.578Z,13.00
2022-09-29T08:54:37.106Z,13.10
2022-09-29T08:55:53.360Z,13.20
2022-09-29T08:57:09.016Z,13.30
2022-09-29T08:58:17.390Z,13.30
2022-09-29T08:59:31.385Z,13.40
2022-09-29T09:00:43.062Z,13.40
2022-09-29T09:02:21.698Z,13.50
2022-09-29T09:04:04.672Z,13.50
2022-09-29T09:05:35.683Z,13.60
2022-09-29T09:06:59.156Z,13.50
2022-09-29T09:08:20.571Z,13.40
2022-09-29T09:09:54.191Z,13.40
2022-09-29T09:11:10.726Z,13.30
2022-09-29T09:12:49.592Z,13.50
2022-09-29T09:14:16.693Z,13.50
2022-09-29T09:15:41.183Z,13.50
2022-09-29T09:16:56.084Z,13.40
2022-09-29T09:20:28.807Z,13.30
2022-09-29T09:21:50.459Z,13.30
2022-09-29T09:23:04.526Z,13.20
2022-09-29T09:24:29.896Z,13.10
2022-09-29T09:25:51.800Z,13.10
2022-09-29T09:27:01.588Z,13.10
2022-09-29T09:28:18.035Z,13.10
2022-09-29T09:29:37.391Z,13.10
2022-09-29T09:30:51.421Z,13.20
2022-09-29T09:32:06.703Z,13.20
2022-09-29T09:33:32.170Z,13.30
2022-09-29T09:34:50.164Z,13.30
2022-09-29T09:36:03.799Z,13.00
2022-09-29T09:37:18.813Z,13.10
2022-09-29T09:38:35.318Z,12.90
2022-09-29T09:39:47.068Z,12.80
2022-09-29T09:41:00.784Z,12.80
2022-09-29T09:42:22.711Z,12.80
2022-09-29T09:43:36.853Z,12.80
2022-09-29T09:44:52.614Z,12.90
2022-09-29T09:46:02.306Z,13.00
2022-09-29T09:47:30.383Z,12.90
2022-09-29T09:48:41.171Z,13.00
2022-09-29T09:49:55.128Z,13.00
2022-09-29T09:51:19.300Z,13.00
2022-09-29T09:52:33.938Z,13.10
2022-09-29T09:53:42.846Z,13.20
2022-09-29T09:54:59.171Z,13.20
2022-09-29T09:56:21.671Z,13.30
2022-09-29T09:58:05.080Z,13.40
2022-09-29T09:59:27.286Z,13.40
2022-09-29T10:00:47.134Z,13.60
2022-09-29T10:01:51.980Z,13.60
2022-09-29T10:03:06.704Z,13.70
2022-09-29T10:04:15.222Z,13.80
2022-09-29T10:05:26.721Z,13.80
2022-09-29T10:06:37.776Z,13.70
2022-09-29T10:07:42.927Z,13.80
2022-09-29T10:08:48.090Z,13.80
2022-09-29T10:09:53.793Z,13.80
2022-09-29T10:11:00.835Z,13.80
2022-09-29T10:12:11.699Z,13.90
2022-09-29T10:13:23.660Z,13.90
2022-09-29T10:14:29.410Z,13.80
2022-09-29T10:15:38.057Z,13.90
2022-09-29T10:16:51.579Z,13.80
2022-09-29T10:18:08.720Z,13.70
2022-09-29T10:19:14.130Z,13.70
2022-09-29T10:20:35.153Z,13.70
2022-09-29T10:21:42.617Z,13.70
2022-09-29T10:22:51.844Z,13.70
2022-09-29T10:23:57.725Z,13.70
2022-09-29T10:25:20.465Z,13.70
2022-09-29T10:26:29.806Z,13.70
2022-09-29T10:27:39.462Z,13.80
2022-09-29T10:28:50.940Z,13.80
2022-09-29T10:29:59.520Z,13.70
2022-09-29T10:31:04.404Z,13.70
2022-09-29T10:32:13.283Z,13.70
2022-09-29T10:33:27.880Z,13.70
2022-09-29T10:34:38.650Z,13.70
2022-09-29T10:35:55.131Z,13.70
2022-09-29T10:37:04.744Z,13.80
2022-09-29T10:38:20.458Z,13.90
2022-09-29T10:39:45.550Z,13.80
2022-09-29T10:40:57.750Z,13.80
2022-09-29T10:42:01.763Z,13.80
2022-09-29T10:43:27.475Z,13.80
2022-09-29T10:44:43.482Z,13.90
2022-09-29T10:45:48.814Z,13.90
2022-09-29T10:46:56.248Z,13.90
2022-09-29T10:48:13.429Z,13.90
2022-09-29T10:49:22.582Z,13.80
2022-09-29T10:50:34.998Z,13.90
2022-09-29T10:52:00.118Z,13.90
2022-09-29T10:53:13.228Z,13.80
2022-09-29T10:54:23.334Z,13.90
2022-09-29T10:55:32.033Z,13.90
2022-09-29T10:56:42.927Z,14.00
2022-09-29T10:57:50.133Z,14.00
2022-09-29T10:59:01.756Z,14.00
2022-09-29T11:00:27.300Z,13.90
2022-09-29T11:01:33.960Z,13.80
2022-09-29T11:02:47.609Z,13.80
2022-09-29T11:04:01.719Z,13.80
2022-09-29T11:05:19.660Z,13.80
2022-09-29T11:06:30.354Z,13.70
2022-09-29T11:07:37.173Z,13.70
2022-09-29T11:08:58.411Z,13.60
2022-09-29T11:10:28.499Z,13.50
2022-09-29T11:12:01.584Z,13.50
2022-09-29T11:13:38.006Z,13.50
2022-09-29T11:14:45.976Z,13.50
2022-09-29T11:15:50.909Z,13.40
2022-09-29T11:16:59.961Z,13.40
2022-09-29T11:18:21.517Z,13.40
2022-09-29T11:19:36.065Z,13.40
2022-09-29T11:20:40.613Z,13.50
2022-09-29T11:22:14.254Z,13.40
2022-09-29T11:23:28.991Z,13.50
2022-09-29T11:25:17.255Z,13.40
2022-09-29T11:26:38.628Z,13.50
2022-09-29T11:28:01.903Z,13.60
2022-09-29T11:29:33.885Z,13.50
2022-09-29T11:30:54.131Z,13.50
2022-09-29T11:32:15.088Z,13.50
2022-09-29T11:33:33.916Z,13.50
2022-09-29T11:35:09.464Z,13.60
2022-09-29T11:36:29.080Z,13.60
2022-09-29T11:37:55.930Z,13.50
2022-09-29T11:39:28.371Z,13.60
2022-09-29T11:40:55.194Z,13.50
2022-09-29T11:42:26.138Z,13.50
2022-09-29T11:43:46.040Z,13.50
2022-09-29T11:45:02.208Z,13.60
2022-09-29T11:46:24.525Z,13.60
2022-09-29T11:48:16.516Z,13.70
2022-09-29T11:49:46.124Z,13.70
2022-09-29T11:51:02.379Z,13.70
2022-09-29T11:52:36.047Z,13.70
2022-09-29T11:56:08.494Z,13.60
2022-09-29T11:57:48.291Z,13.80
2022-09-29T11:59:11.324Z,13.70
2022-09-29T12:00:21.551Z,13.70
2022-09-29T12:01:43.516Z,13.70
2022-09-29T12:03:22.581Z,13.80
2022-09-29T12:04:45.267Z,13.90
2022-09-29T12:06:16.099Z,14.00
2022-09-29T12:07:54.305Z,14.10
2022-09-29T12:09:37.233Z,14.20
2022-09-29T12:10:52.838Z,14.30
2022-09-29T12:12:24.687Z,14.40
2022-09-29T12:13:49.307Z,14.40
2022-09-29T12:15:30.253Z,14.50
2022-09-29T12:16:40.828Z,14.60
2022-09-29T12:17:50.074Z,14.60
2022-09-29T12:19:04.642Z,14.60
2022-09-29T12:20:20.317Z,14.60
2022-09-29T12:21:39.391Z,14.60
2022-09-29T12:22:47.602Z,14.60
2022-09-29T12:23:53.341Z,14.60
2022-09-29T12:25:01.604Z,14.50
2022-09-29T12:26:12.766Z,14.50
2022-09-29T12:27:20.650Z,14.50
2022-09-29T12:28:31.478Z,14.60
2022-09-29T12:29:41.508Z,14.50
2022-09-29T12:30:57.417Z,14.90
2022-09-29T12:32:18.400Z,14.50
2022-09-29T12:33:33.496Z,14.50
2022-09-29T12:34:53.005Z,14.50
2022-09-29T12:36:31.071Z,15.80
2022-09-29T12:37:49.550Z,14.40
2022-09-29T12:39:06.767Z,14.40
2022-09-29T12:40:21.810Z,14.40
2022-09-29T12:41:37.918Z,14.40
2022-09-29T12:43:01.364Z,14.30
2022-09-29T12:44:21.629Z,14.30
2022-09-29T12:45:35.457Z,14.20
2022-09-29T12:46:42.252Z,14.20
2022-09-29T12:48:20.681Z,14.20
2022-09-29T12:49:43.088Z,14.10
2022-09-29T12:50:57.494Z,14.10
2022-09-29T12:52:14.597Z,14.40
2022-09-29T12:53:25.507Z,14.50
2022-09-29T12:54:40.429Z,14.80
2022-09-29T12:55:58.853Z,14.80
2022-09-29T12:57:09.015Z,14.80
2022-09-29T12:58:35.123Z,14.80
2022-09-29T13:00:02.189Z,14.70
2022-09-29T13:01:24.684Z,14.70
2022-09-29T13:03:13.978Z,14.70
2022-09-29T13:04:59.224Z,14.60
2022-09-29T13:06:56.991Z,14.60
2022-09-29T13:08:28.844Z,14.60
2022-09-29T13:09:54.743Z,14.50
2022-09-29T13:11:23.967Z,14.40
2022-09-29T13:12:58.986Z,14.30
2022-09-29T13:14:29.212Z,14.20
2022-09-29T13:16:05.968Z,14.20
2022-09-29T13:17:25.327Z,14.20
2022-09-29T13:19:22.936Z,14.20
2022-09-29T13:21:09.688Z,14.20
2022-09-29T13:22:48.121Z,14.10
2022-09-29T13:24:28.476Z,14.10
2022-09-29T13:25:55.092Z,14.00
2022-09-29T13:27:26.152Z,14.00
2022-09-29T13:28:35.243Z,14.00
2022-09-29T13:29:52.302Z,13.90
2022-09-29T13:32:28.155Z,13.90
2022-09-29T13:33:54.304Z,13.90
2022-09-29T13:36:37.695Z,13.90
2022-09-29T13:37:58.254Z,13.90
2022-09-29T13:39:22.938Z,13.90
2022-09-29T13:40:52.567Z,13.90
2022-09-29T13:42:53.208Z,14.00
2022-09-29T13:44:32.886Z,13.90
2022-09-29T13:45:50.723Z,14.00
2022-09-29T13:46:59.252Z,14.20
2022-09-29T13:48:45.502Z,14.40
2022-09-29T13:49:50.960Z,14.50
2022-09-29T13:51:00.634Z,14.70
2022-09-29T13:52:37.385Z,14.80
2022-09-29T13:53:48.197Z,15.00
2022-09-29T13:55:02.809Z,15.20
2022-09-29T13:56:23.052Z,15.40
2022-09-29T13:57:29.171Z,16.20
2022-09-29T13:58:33.867Z,15.50
2022-09-29T13:59:56.687Z,15.50
2022-09-29T14:01:07.856Z,14.60
2022-09-29T14:02:29.730Z,15.60
2022-09-29T14:03:47.097Z,15.70
2022-09-29T14:05:01.617Z,15.70
2022-09-29T14:08:16.339Z,15.40
2022-09-29T14:09:26.423Z,15.40
2022-09-29T14:10:43.934Z,15.40
2022-09-29T14:11:55.420Z,15.50
2022-09-29T14:13:08.728Z,15.50
2022-09-29T14:14:25.631Z,15.40
2022-09-29T14:15:40.880Z,15.50
2022-09-29T14:18:37.886Z,15.50
2022-09-29T14:20:00.642Z,15.50
2022-09-29T14:21:08.542Z,15.50
2022-09-29T14:22:49.685Z,15.60
2022-09-29T14:23:55.561Z,15.50
2022-09-29T14:25:36.399Z,15.30
2022-09-29T14:26:50.037Z,15.30
2022-09-29T14:28:09.846Z,15.30
2022-09-29T14:29:24.386Z,15.30
2022-09-29T14:30:46.190Z,15.30
2022-09-29T14:31:59.579Z,15.30
2022-09-29T14:33:12.742Z,15.30
2022-09-29T14:34:25.519Z,15.30
2022-09-29T14:35:59.030Z,15.30
2022-09-29T14:37:04.985Z,15.40
2022-09-29T14:38:20.165Z,15.30
2022-09-29T14:39:28.468Z,15.30
2022-09-29T14:40:33.183Z,15.30
2022-09-29T14:41:50.529Z,15.30
2022-09-29T14:43:19.233Z,15.20
2022-09-29T14:44:56.309Z,15.30
2022-09-29T14:46:50.429Z,15.20
2022-09-29T14:48:29.244Z,15.10
2022-09-29T14:50:31.801Z,15.10
2022-09-29T14:52:02.268Z,15.00
2022-09-29T14:53:29.607Z,15.00
2022-09-29T14:55:05.179Z,15.00
2022-09-29T14:56:44.944Z,14.90
2022-09-29T14:58:07.844Z,14.80
2022-09-29T14:59:33.207Z,14.80
2022-09-29T15:01:04.337Z,14.70
2022-09-29T15:02:34.627Z,14.60
2022-09-29T15:03:52.977Z,14.60
2022-09-29T15:05:16.182Z,14.60
2022-09-29T15:06:44.776Z,14.50
2022-09-29T15:08:27.790Z,14.40
2022-09-29T15:09:47.457Z,14.40
2022-09-29T15:12:50.150Z,14.30
2022-09-29T15:14:06.887Z,14.20
2022-09-29T15:15:53.551Z,14.20
2022-09-29T15:17:27.169Z,14.20
2022-09-29T15:19:07.632Z,14.10
2022-09-29T15:22:16.978Z,14.00
2022-09-29T15:23:59.996Z,13.90
2022-09-29T15:25:31.869Z,13.90
2022-09-29T15:26:55.716Z,13.80
2022-09-29T15:28:25.229Z,13.70
2022-09-29T15:29:44.618Z,13.70
2022-09-29T15:31:14.713Z,13.60
2022-09-29T15:33:27.548Z,13.60
2022-09-29T15:34:36.150Z,13.50
2022-09-29T15:36:04.939Z,13.50
2022-09-29T15:37:21.514Z,13.40
2022-09-29T15:38:43.057Z,13.30
2022-09-29T15:40:09.611Z,13.20
2022-09-29T15:41:35.160Z,13.20
2022-09-29T15:42:53.192Z,13.20
2022-09-29T15:44:05.548Z,13.10
2022-09-29T15:45:39.053Z,13.10
2022-09-29T15:46:58.100Z,12.50
2022-09-29T15:49:31.833Z,12.90
2022-09-29T15:50:51.479Z,12.90
2022-09-29T15:52:06.789Z,12.90
2022-09-29T15:55:23.235Z,12.70
2022-09-29T15:56:59.161Z,12.70
2022-09-29T15:58:49.605Z,12.70
2022-09-29T15:59:56.485Z,12.60
2022-09-29T16:01:18.294Z,12.60
2022-09-29T16:02:30.770Z,12.50
2022-09-29T16:03:44.075Z,12.50
2022-09-29T16:04:58.812Z,12.50
2022-09-29T16:06:24.370Z,12.40
2022-09-29T16:07:50.914Z,12.40
2022-09-29T16:09:37.305Z,12.40
2022-09-29T16:10:54.305Z,12.30
2022-09-29T16:12:12.099Z,12.30
2022-09-29T16:13:26.491Z,12.30
2022-09-29T16:14:38.362Z,12.30
2022-09-29T16:15:58.150Z,12.30
2022-09-29T16:17:23.712Z,12.20
2022-09-29T16:18:48.004Z,12.20
2022-09-29T16:21:46.435Z,12.10
2022-09-29T16:22:54.589Z,12.70
2022-09-29T16:24:37.460Z,12.00
2022-09-29T16:25:53.630Z,11.90
2022-09-29T16:27:02.170Z,11.90
2022-09-29T16:28:35.844Z,11.80
2022-09-29T16:29:50.790Z,11.80
2022-09-29T16:31:03.183Z,11.70
2022-09-29T16:32:47.949Z,11.70
2022-09-29T16:34:02.621Z,11.70
2022-09-29T16:35:42.195Z,11.60
2022-09-29T16:36:54.663Z,11.50
2022-09-29T16:38:01.047Z,11.50
2022-09-29T16:39:17.903Z,11.50
2022-09-29T16:40:38.446Z,11.50
2022-09-29T16:42:10.007Z,11.50
2022-09-29T16:43:27.686Z,11.40
2022-09-29T16:44:35.386Z,11.40
2022-09-29T16:45:44.279Z,11.30
2022-09-29T16:46:57.645Z,11.30
2022-09-29T16:48:09.948Z,11.30
2022-09-29T16:49:36.571Z,11.30
2022-09-29T16:52:52.209Z,11.30
2022-09-29T16:54:12.823Z,11.20
2022-09-29T16:55:31.376Z,11.10
2022-09-29T16:56:42.397Z,11.20
2022-09-29T16:58:17.454Z,11.10
2022-09-29T16:59:25.550Z,11.10
2022-09-29T17:00:41.439Z,11.30